createdAt,value
2023-12-27T00:01:30.857Z,5.80
2023-12-27T00:06:28.566Z,5.47
2023-12-27T00:11:25.554Z,5.35
2023-12-27T00:16:22.375Z,6.75
2023-12-27T00:21:19.336Z,5.20
2023-12-27T00:26:17.091Z,5.68
2023-12-27T00:31:14.592Z,5.55
2023-12-27T00:36:13.110Z,4.93
2023-12-27T00:41:09.968Z,5.20
2023-12-27T00:46:07.773Z,5.47
2023-12-27T00:51:05.995Z,4.90
2023-12-27T00:56:03.134Z,6.35
2023-12-27T01:01:00.247Z,5.82
2023-12-27T01:05:58.000Z,5.55
2023-12-27T01:10:57.907Z,5.63
2023-12-27T01:15:55.494Z,5.18
2023-12-27T01:20:52.550Z,5.20
2023-12-27T01:25:50.359Z,6.13
2023-12-27T01:30:48.090Z,5.70
2023-12-27T01:35:45.635Z,4.65
2023-12-27T01:40:49.671Z,5.53
2023-12-27T01:45:50.502Z,5.28
2023-12-27T01:50:47.778Z,5.40
2023-12-27T01:55:44.694Z,5.43
2023-12-27T02:00:45.054Z,5.80
2023-12-27T02:05:42.989Z,4.82
2023-12-27T02:10:42.145Z,5.13
2023-12-27T02:15:39.582Z,5.32
2023-12-27T02:20:37.516Z,5.70
2023-12-27T02:25:35.219Z,5.28
2023-12-27T02:30:34.221Z,4.95
2023-12-27T02:35:31.557Z,4.65
2023-12-27T02:40:28.870Z,4.57
2023-12-27T02:45:26.514Z,4.90
2023-12-27T02:50:23.506Z,4.32
2023-12-27T02:55:20.387Z,4.95
2023-12-27T03:00:17.872Z,4.70
2023-12-27T03:05:15.512Z,4.40
2023-12-27T03:10:12.463Z,3.85
2023-12-27T03:15:10.878Z,3.58
2023-12-27T03:20:09.431Z,3.55
2023-12-27T03:25:08.048Z,3.97
2023-12-27T03:30:05.779Z,5.05
2023-12-27T03:35:03.598Z,3.92
2023-12-27T03:40:00.919Z,5.18
2023-12-27T03:44:58.540Z,3.78
2023-12-27T03:49:55.518Z,3.80
2023-12-27T03:54:52.388Z,4.20
2023-12-27T03:59:49.334Z,4.28
2023-12-27T04:04:47.532Z,4.00
2023-12-27T04:09:44.490Z,5.45
2023-12-27T04:14:41.336Z,4.65
2023-12-27T04:19:38.260Z,4.50
2023-12-27T04:24:36.200Z,3.92
2023-12-27T04:29:33.298Z,5.03
2023-12-27T04:34:30.669Z,4.65
2023-12-27T04:39:27.622Z,4.05
2023-12-27T04:44:25.284Z,4.18
2023-12-27T04:49:22.361Z,4.72
2023-12-27T04:54:19.455Z,4.40
2023-12-27T04:59:16.446Z,4.47
2023-12-27T05:04:14.116Z,4.40
2023-12-27T05:09:11.141Z,3.92
2023-12-27T05:14:08.304Z,4.50
2023-12-27T05:19:05.565Z,5.40
2023-12-27T05:24:03.248Z,4.72
2023-12-27T05:29:00.259Z,4.10
2023-12-27T05:34:00.698Z,5.68
2023-12-27T05:38:57.718Z,4.95
2023-12-27T05:43:55.275Z,4.38
2023-12-27T05:48:52.266Z,4.45
2023-12-27T05:53:49.506Z,4.90
2023-12-27T05:58:46.888Z,5.45
2023-12-27T06:03:44.484Z,7.00
2023-12-27T06:08:41.345Z,5.20
2023-12-27T06:13:38.778Z,5.68
2023-12-27T06:18:35.810Z,4.95
2023-12-27T06:23:33.452Z,5.40
2023-12-27T06:28:30.602Z,5.80
2023-12-27T06:33:27.684Z,6.80
2023-12-27T06:38:24.874Z,5.55
2023-12-27T06:43:22.487Z,5.90
2023-12-27T06:48:19.880Z,7.00
2023-12-27T06:53:16.758Z,7.05
2023-12-27T06:58:13.847Z,7.10
2023-12-27T07:03:14.865Z,7.70
2023-12-27T07:08:12.957Z,7.40
2023-12-27T07:13:13.912Z,7.85
2023-12-27T07:18:14.104Z,7.20
2023-12-27T07:23:11.654Z,6.97
2023-12-27T07:28:08.732Z,7.47
2023-12-27T07:33:05.834Z,7.22
2023-12-27T07:38:04.231Z,8.48
2023-12-27T07:43:02.684Z,7.95
2023-12-27T07:47:59.856Z,7.88
2023-12-27T07:52:57.026Z,7.63
2023-12-27T07:57:54.802Z,8.73
2023-12-27T08:02:51.817Z,8.50
2023-12-27T08:07:48.606Z,7.68
2023-12-27T08:12:47.001Z,7.15
2023-12-27T08:17:45.282Z,7.05
2023-12-27T08:22:42.263Z,7.18
2023-12-27T08:27:39.372Z,7.35
2023-12-27T08:32:36.299Z,5.95
2023-12-27T08:37:34.132Z,6.10
2023-12-27T08:42:31.409Z,6.30
2023-12-27T08:47:28.429Z,5.35
2023-12-27T08:52:26.313Z,6.35
2023-12-27T08:57:23.927Z,6.03
2023-12-27T09:02:20.755Z,5.55
2023-12-27T09:07:17.693Z,5.63
2023-12-27T09:12:15.421Z,5.40
2023-12-27T09:17:14.389Z,5.40
2023-12-27T09:22:11.460Z,5.70
2023-12-27T09:27:08.780Z,5.63
2023-12-27T09:32:06.287Z,5.45
2023-12-27T09:37:04.503Z,4.38
2023-12-27T09:42:01.602Z,4.90
2023-12-27T09:47:02.897Z,5.72
2023-12-27T09:52:02.382Z,5.10
2023-12-27T09:57:00.690Z,5.15
2023-12-27T10:02:00.631Z,4.55
2023-12-27T10:06:58.980Z,5.07
2023-12-27T10:11:56.602Z,4.32
2023-12-27T10:16:54.238Z,3.70
2023-12-27T10:21:54.637Z,3.90
2023-12-27T10:26:55.029Z,4.45
2023-12-27T10:31:52.092Z,2.92
2023-12-27T10:36:51.360Z,3.80
2023-12-27T10:41:49.705Z,4.32
2023-12-27T10:46:51.610Z,3.45
2023-12-27T10:51:49.338Z,3.53
2023-12-27T10:56:51.190Z,3.53
2023-12-27T11:01:52.855Z,3.80
2023-12-27T11:06:52.736Z,10.75
2023-12-27T11:11:52.523Z,3.40
2023-12-27T11:16:53.395Z,3.00
2023-12-27T11:21:51.496Z,2.95
2023-12-27T11:26:49.607Z,3.17
2023-12-27T11:31:48.105Z,2.72
2023-12-27T11:36:47.082Z,2.60
2023-12-27T11:41:44.038Z,2.38
2023-12-27T11:46:43.111Z,3.45
2023-12-27T11:51:40.956Z,3.20
2023-12-27T11:56:40.188Z,2.63
2023-12-27T12:01:38.933Z,2.83
2023-12-27T12:07:14.002Z,2.38
2023-12-27T12:12:16.177Z,2.15
2023-12-27T12:17:14.421Z,2.42
2023-12-27T12:22:14.489Z,4.85
2023-12-27T12:27:23.290Z,3.88
2023-12-27T12:32:21.293Z,2.42
2023-12-27T12:37:19.315Z,2.45
2023-12-27T12:42:16.420Z,2.00
2023-12-27T12:47:13.461Z,2.63
2023-12-27T12:52:10.607Z,1.92
2023-12-27T12:57:08.468Z,2.63
2023-12-27T13:02:06.700Z,2.00
2023-12-27T13:07:07.960Z,2.10
2023-12-27T13:12:05.776Z,2.50
2023-12-27T13:17:03.787Z,2.33
2023-12-27T13:22:00.640Z,2.03
2023-12-27T13:26:57.569Z,1.98
2023-12-27T13:31:54.828Z,1.83
2023-12-27T13:36:52.690Z,2.17
2023-12-27T13:41:49.745Z,2.55
2023-12-27T13:46:46.852Z,2.05
2023-12-27T13:51:44.159Z,2.47
2023-12-27T13:56:44.394Z,2.25
2023-12-27T14:01:42.608Z,2.28
2023-12-27T14:06:39.823Z,2.30
2023-12-27T14:11:36.865Z,2.30
2023-12-27T14:16:34.769Z,2.30
2023-12-27T14:21:39.031Z,2.45
2023-12-27T14:26:40.982Z,2.35
2023-12-27T14:31:39.847Z,2.13
2023-12-27T14:36:40.375Z,2.35
2023-12-27T14:41:42.433Z,2.88
2023-12-27T14:46:43.886Z,3.53
2023-12-27T14:51:41.420Z,3.55
2023-12-27T14:56:38.273Z,4.13
2023-12-27T15:01:35.351Z,4.53
2023-12-27T15:06:33.097Z,3.33
2023-12-27T15:11:29.994Z,3.47
2023-12-27T15:16:26.823Z,4.18
2023-12-27T15:21:23.956Z,6.05
2023-12-27T15:26:23.359Z,4.75
2023-12-27T15:31:21.582Z,3.42
2023-12-27T15:36:21.000Z,4.90
2023-12-27T15:41:18.760Z,3.78
2023-12-27T15:46:17.316Z,3.90
2023-12-27T15:51:23.105Z,5.50
2023-12-27T15:56:27.221Z,4.90
2023-12-27T16:01:27.014Z,3.50
2023-12-27T16:06:25.334Z,5.00
2023-12-27T16:11:22.549Z,3.80
2023-12-27T16:16:19.473Z,3.05
2023-12-27T16:21:19.971Z,2.67
2023-12-27T16:26:19.367Z,2.53
2023-12-27T16:31:19.497Z,2.80
2023-12-27T16:36:35.617Z,3.10
2023-12-27T16:41:34.945Z,3.75
2023-12-27T16:46:34.797Z,3.55
2023-12-27T16:51:32.740Z,5.15
2023-12-27T16:56:29.813Z,4.38
2023-12-27T17:01:26.854Z,5.22
2023-12-27T17:06:25.847Z,4.68
2023-12-27T17:11:23.634Z,5.05
2023-12-27T17:16:22.386Z,4.80
2023-12-27T17:22:19.626Z,3.97
2023-12-27T17:27:20.709Z,8.43
2023-12-27T17:32:18.103Z,10.10
2023-12-27T17:37:15.354Z,5.35
2023-12-27T17:42:12.211Z,5.43
2023-12-27T17:47:10.862Z,4.45
2023-12-27T17:52:08.359Z,4.72
2023-12-27T17:57:06.114Z,3.75
2023-12-27T18:02:05.784Z,5.32
2023-12-27T18:07:13.815Z,3.70
2023-12-27T18:12:22.019Z,4.90
2023-12-27T18:17:18.927Z,3.97
2023-12-27T18:22:16.685Z,3.50
2023-12-27T18:27:13.728Z,3.65
2023-12-27T18:32:10.673Z,3.80
2023-12-27T18:37:08.073Z,3.55
2023-12-27T18:42:06.569Z,4.05
2023-12-27T18:47:04.615Z,3.78
2023-12-27T18:52:01.482Z,3.63
2023-12-27T18:56:58.311Z,3.28
2023-12-27T19:01:58.296Z,3.75
2023-12-27T19:06:55.664Z,3.38
2023-12-27T19:11:52.605Z,3.70
2023-12-27T19:16:54.168Z,4.00
2023-12-27T19:21:55.344Z,3.13
2023-12-27T19:26:53.493Z,3.75
2023-12-27T19:31:50.572Z,3.50
2023-12-27T19:36:47.760Z,3.05
2023-12-27T19:41:46.507Z,3.50
2023-12-27T19:46:43.679Z,3.50
2023-12-27T19:51:41.576Z,3.78
2023-12-27T19:56:38.595Z,3.35
2023-12-27T20:01:36.370Z,3.70
2023-12-27T20:06:33.393Z,4.70
2023-12-27T20:11:32.202Z,3.40
2023-12-27T20:16:29.506Z,3.60
2023-12-27T20:21:29.175Z,3.95
2023-12-27T20:26:26.962Z,3.88
2023-12-27T20:31:24.250Z,3.38
2023-12-27T20:36:21.962Z,3.50
2023-12-27T20:41:20.903Z,3.30
2023-12-27T20:46:17.830Z,3.58
2023-12-27T20:51:14.902Z,3.90
2023-12-27T20:56:11.732Z,3.65
2023-12-27T21:01:09.521Z,3.15
2023-12-27T21:06:06.606Z,3.80
2023-12-27T21:11:03.727Z,4.25
2023-12-27T21:16:00.652Z,3.80
2023-12-27T21:20:58.512Z,3.47
2023-12-27T21:25:57.049Z,3.33
2023-12-27T21:30:54.004Z,4.65
2023-12-27T21:35:54.078Z,3.20
2023-12-27T21:40:52.027Z,4.13
2023-12-27T21:45:48.965Z,6.45
2023-12-27T21:50:45.929Z,3.33
2023-12-27T21:55:42.894Z,4.32
2023-12-27T22:00:40.627Z,3.65
2023-12-27T22:05:39.188Z,4.38
2023-12-27T22:10:36.026Z,4.28
2023-12-27T22:15:39.060Z,3.72
2023-12-27T22:20:42.354Z,3.67
2023-12-27T22:25:39.245Z,3.50
2023-12-27T22:30:37.609Z,3.80
2023-12-27T22:35:34.604Z,4.03
2023-12-27T22:40:32.347Z,5.80
2023-12-27T22:45:29.164Z,3.88
2023-12-27T22:50:27.393Z,4.57
2023-12-27T22:55:24.403Z,4.38
2023-12-27T23:00:23.027Z,4.10
2023-12-27T23:05:21.361Z,3.83
2023-12-27T23:10:18.241Z,4.00
2023-12-27T23:15:15.206Z,4.20
2023-12-27T23:20:12.847Z,4.47
2023-12-27T23:25:09.946Z,4.60
2023-12-27T23:30:07.887Z,4.30
2023-12-27T23:35:05.283Z,4.68
2023-12-27T23:40:03.617Z,4.00
2023-12-27T23:45:00.607Z,5.70
2023-12-27T23:49:57.703Z,5.00
2023-12-27T23:54:54.765Z,4.30
2023-12-27T23:59:52.344Z,5.20
